createdAt,value
2018-02-08T00:00:31.366Z,97659.06
2018-02-08T00:01:02.994Z,97660.73
2018-02-08T00:01:34.617Z,97661.59
2018-02-08T00:02:06.243Z,97660.33
2018-02-08T00:02:37.870Z,97663.78
2018-02-08T00:03:09.494Z,97661.27
2018-02-08T00:03:41.169Z,97663.02
2018-02-08T00:04:12.789Z,97665.10
2018-02-08T00:04:44.418Z,97665.58
2018-02-08T00:05:16.041Z,97662.66
2018-02-08T00:05:47.670Z,97662.66
2018-02-08T00:06:19.294Z,97654.17
2018-02-08T00:06:50.913Z,97657.14
2018-02-08T00:07:22.542Z,97652.03
2018-02-08T00:07:54.164Z,97637.86
2018-02-08T00:08:25.789Z,97660.45
2018-02-08T00:08:57.458Z,97658.34
2018-02-08T00:09:29.077Z,97659.60
2018-02-08T00:10:00.702Z,97656.66
2018-02-08T00:10:32.369Z,97657.98
2018-02-08T00:11:04.009Z,97655.45
2018-02-08T00:11:35.671Z,97655.44
2018-02-08T00:12:07.294Z,97655.86
2018-02-08T00:12:38.922Z,97650.34
2018-02-08T00:13:10.545Z,97656.29
2018-02-08T00:13:42.169Z,97657.17
2018-02-08T00:14:13.841Z,97656.30
2018-02-08T00:14:45.466Z,97650.76
2018-02-08T00:15:17.094Z,97657.14
2018-02-08T00:15:48.770Z,97657.58
2018-02-08T00:16:20.397Z,97655.08
2018-02-08T00:16:52.026Z,97654.74
2018-02-08T00:17:23.645Z,97655.59
2018-02-08T00:17:55.265Z,97653.89
2018-02-08T00:18:26.890Z,97656.00
2018-02-08T00:18:58.513Z,97654.75
2018-02-08T00:19:30.134Z,97647.09
2018-02-08T00:20:01.757Z,97655.96
2018-02-08T00:20:33.377Z,97650.91
2018-02-08T00:21:05.058Z,97649.13
2018-02-08T00:21:36.686Z,97655.52
2018-02-08T00:22:08.318Z,97650.05
2018-02-08T00:22:39.944Z,97651.25
2018-02-08T00:23:11.569Z,97649.14
2018-02-08T00:23:43.190Z,97652.59
2018-02-08T00:24:14.826Z,97653.47
2018-02-08T00:24:46.450Z,97654.33
2018-02-08T00:25:18.074Z,97650.99
2018-02-08T00:25:49.698Z,97649.64
2018-02-08T00:26:21.361Z,97650.94
2018-02-08T00:26:53.026Z,97650.48
2018-02-08T00:27:24.656Z,97656.88
2018-02-08T00:27:56.277Z,97654.73
2018-02-08T00:28:27.902Z,97653.45
2018-02-08T00:28:59.526Z,97655.19
2018-02-08T00:29:31.149Z,97653.11
2018-02-08T00:30:02.778Z,97653.45
2018-02-08T00:30:34.401Z,97655.19
2018-02-08T00:31:06.090Z,97650.56
2018-02-08T00:31:37.710Z,97652.68
2018-02-08T00:32:09.338Z,97651.83
2018-02-08T00:32:40.961Z,97646.66
2018-02-08T00:33:12.581Z,97648.38
2018-02-08T00:33:44.211Z,97655.67
2018-02-08T00:34:15.834Z,97653.11
2018-02-08T00:34:47.454Z,97656.10
2018-02-08T00:35:19.074Z,97656.53
2018-02-08T00:35:50.701Z,97656.11
2018-02-08T00:36:22.325Z,97654.39
2018-02-08T00:36:53.946Z,97655.70
2018-02-08T00:37:25.565Z,97658.66
2018-02-08T00:37:57.229Z,97657.80
2018-02-08T00:38:28.893Z,97654.84
2018-02-08T00:39:00.518Z,97657.44
2018-02-08T00:39:32.143Z,97660.44
2018-02-08T00:40:03.769Z,97658.73
2018-02-08T00:40:35.393Z,97656.59
2018-02-08T00:41:07.022Z,97660.00
2018-02-08T00:41:38.645Z,97664.52
2018-02-08T00:42:10.265Z,97655.01
2018-02-08T00:42:41.925Z,97663.53
2018-02-08T00:43:13.549Z,97654.67
2018-02-08T00:43:45.170Z,97655.61
2018-02-08T00:44:16.845Z,97659.14
2018-02-08T00:44:48.457Z,97657.92
2018-02-08T00:45:20.086Z,97661.33
2018-02-08T00:45:51.714Z,97660.48
2018-02-08T00:46:23.382Z,97655.81
2018-02-08T00:46:55.009Z,97658.77
2018-02-08T00:47:26.637Z,97657.50
2018-02-08T00:47:58.257Z,97651.97
2018-02-08T00:48:29.886Z,97652.45
2018-02-08T00:49:01.509Z,97660.47
2018-02-08T00:49:33.174Z,97651.52
2018-02-08T00:50:04.842Z,97660.05
2018-02-08T00:50:36.465Z,97653.73
2018-02-08T00:51:08.085Z,97653.31
2018-02-08T00:51:39.705Z,97649.12
2018-02-08T00:52:11.338Z,97652.11
2018-02-08T00:52:42.966Z,97654.23
2018-02-08T00:53:14.589Z,97654.66
2018-02-08T00:53:46.209Z,97652.98
2018-02-08T00:54:17.878Z,97659.29
2018-02-08T00:54:49.506Z,97656.36
2018-02-08T00:55:21.202Z,97663.16
2018-02-08T00:55:52.825Z,97651.70
2018-02-08T00:56:24.445Z,97652.61
2018-02-08T00:56:56.066Z,97659.38
2018-02-08T00:57:27.685Z,97649.23
2018-02-08T00:57:59.309Z,97653.91
2018-02-08T00:58:30.930Z,97648.43
2018-02-08T00:59:02.554Z,97657.74
2018-02-08T00:59:34.177Z,97651.36
2018-02-08T01:00:05.806Z,97651.84
2018-02-08T01:00:37.469Z,97656.95
2018-02-08T01:01:09.090Z,97651.42
2018-02-08T01:01:40.770Z,97651.36
2018-02-08T01:02:12.398Z,97654.37
2018-02-08T01:02:44.021Z,97650.16
2018-02-08T01:03:15.641Z,97656.03
2018-02-08T01:03:47.260Z,97650.94
2018-02-08T01:04:18.889Z,97650.50
2018-02-08T01:04:50.518Z,97645.83
2018-02-08T01:05:22.142Z,97650.48
2018-02-08T01:05:53.766Z,97646.72
2018-02-08T01:06:25.397Z,97648.01
2018-02-08T01:06:57.069Z,97647.16
2018-02-08T01:07:28.694Z,97650.16
2018-02-08T01:08:00.318Z,97646.80
2018-02-08T01:08:31.946Z,97653.63
2018-02-08T01:09:03.594Z,97652.72
2018-02-08T01:09:35.225Z,97649.73
2018-02-08T01:10:06.853Z,97659.52
2018-02-08T01:10:38.482Z,97653.63
2018-02-08T01:11:10.109Z,97653.98
2018-02-08T01:11:41.729Z,97653.10
2018-02-08T01:12:13.354Z,97655.61
2018-02-08T01:12:44.973Z,97653.98
2018-02-08T01:13:16.593Z,97655.23
2018-02-08T01:13:48.214Z,97655.68
2018-02-08T01:14:19.842Z,97648.22
2018-02-08T01:14:51.465Z,97651.09
2018-02-08T01:15:23.088Z,97657.47
2018-02-08T01:15:54.713Z,97655.80
2018-02-08T01:16:26.333Z,97662.19
2018-02-08T01:16:57.957Z,97660.02
2018-02-08T01:17:29.626Z,97660.02
2018-02-08T01:18:01.245Z,97664.27
2018-02-08T01:18:32.914Z,97665.55
2018-02-08T01:19:04.581Z,97669.86
2018-02-08T01:19:36.200Z,97662.64
2018-02-08T01:20:07.821Z,97663.48
2018-02-08T01:20:39.445Z,97666.02
2018-02-08T01:21:11.070Z,97664.69
2018-02-08T01:21:42.693Z,97663.77
2018-02-08T01:22:14.322Z,97662.98
2018-02-08T01:22:45.946Z,97665.12
2018-02-08T01:23:17.617Z,97658.80
2018-02-08T01:23:49.246Z,97664.31
2018-02-08T01:24:20.921Z,97658.38
2018-02-08T01:24:52.550Z,97661.78
2018-02-08T01:25:24.175Z,97664.27
2018-02-08T01:25:55.802Z,97664.81
2018-02-08T01:26:27.430Z,97656.75
2018-02-08T01:26:59.057Z,97662.27
2018-02-08T01:27:30.686Z,97653.78
2018-02-08T01:28:02.362Z,97656.31
2018-02-08T01:28:33.989Z,97655.46
2018-02-08T01:29:05.613Z,97657.59
2018-02-08T01:29:37.245Z,97656.77
2018-02-08T01:30:08.864Z,97652.55
2018-02-08T01:30:40.484Z,97653.36
2018-02-08T01:31:12.109Z,97660.17
2018-02-08T01:31:43.729Z,97658.88
2018-02-08T01:32:15.350Z,97654.64
2018-02-08T01:32:46.974Z,97658.89
2018-02-08T01:33:18.630Z,97650.38
2018-02-08T01:33:50.297Z,97661.91
2018-02-08T01:34:21.930Z,97651.28
2018-02-08T01:34:53.549Z,97658.02
2018-02-08T01:35:25.174Z,97658.44
2018-02-08T01:35:56.793Z,97657.17
2018-02-08T01:36:28.464Z,97659.75
2018-02-08T01:37:00.137Z,97655.48
2018-02-08T01:37:31.762Z,97658.03
2018-02-08T01:38:03.386Z,97660.17
2018-02-08T01:38:35.009Z,97667.45
2018-02-08T01:39:06.629Z,97657.67
2018-02-08T01:39:38.250Z,97661.08
2018-02-08T01:40:09.882Z,97663.20
2018-02-08T01:40:41.510Z,97663.58
2018-02-08T01:41:13.129Z,97665.70
2018-02-08T01:41:44.750Z,97664.81
2018-02-08T01:42:16.414Z,97665.67
2018-02-08T01:42:48.038Z,97664.34
2018-02-08T01:43:19.709Z,97663.90
2018-02-08T01:43:51.329Z,97667.80
2018-02-08T01:44:22.953Z,97666.95
2018-02-08T01:44:54.574Z,97665.67
2018-02-08T01:45:26.193Z,97665.25
2018-02-08T01:45:57.818Z,97658.88
2018-02-08T01:46:29.449Z,97666.91
2018-02-08T01:47:01.078Z,97654.75
2018-02-08T01:47:32.706Z,97668.66
2018-02-08T01:48:04.369Z,97667.80
2018-02-08T01:48:35.989Z,97669.02
2018-02-08T01:49:07.621Z,97666.91
2018-02-08T01:49:39.246Z,97663.50
2018-02-08T01:50:10.866Z,97671.16
2018-02-08T01:50:42.485Z,97663.06
2018-02-08T01:51:14.109Z,97674.56
2018-02-08T01:51:45.732Z,97672.48
2018-02-08T01:52:17.357Z,97666.11
2018-02-08T01:52:48.977Z,97671.15
2018-02-08T01:53:20.597Z,97666.09
2018-02-08T01:53:52.226Z,97669.92
2018-02-08T01:54:23.896Z,97669.53
2018-02-08T01:54:55.514Z,97671.22
2018-02-08T01:55:27.133Z,97675.95
2018-02-08T01:55:58.799Z,97678.53
2018-02-08T01:56:30.441Z,97669.59
2018-02-08T01:57:02.070Z,97670.50
2018-02-08T01:57:33.689Z,97684.90
2018-02-08T01:58:05.314Z,97678.09
2018-02-08T01:58:36.946Z,97672.98
2018-02-08T01:59:08.618Z,97675.95
2018-02-08T01:59:40.242Z,97680.99
2018-02-08T02:00:11.865Z,97680.57
2018-02-08T02:00:43.492Z,97674.19
2018-02-08T02:01:15.119Z,97674.25
2018-02-08T02:01:46.782Z,97681.07
2018-02-08T02:02:18.410Z,97681.94
2018-02-08T02:02:50.033Z,97678.59
2018-02-08T02:03:21.657Z,97682.84
2018-02-08T02:03:53.277Z,97679.73
2018-02-08T02:04:24.897Z,97677.62
2018-02-08T02:04:56.526Z,97679.72
2018-02-08T02:05:28.149Z,97677.23
2018-02-08T02:05:59.778Z,97675.48
2018-02-08T02:06:31.405Z,97680.59
2018-02-08T02:07:03.086Z,97683.99
2018-02-08T02:07:34.705Z,97676.39
2018-02-08T02:08:06.328Z,97684.41
2018-02-08T02:08:37.953Z,97681.45
2018-02-08T02:09:09.577Z,97677.62
2018-02-08T02:09:41.206Z,97684.05
2018-02-08T02:10:12.826Z,97688.31
2018-02-08T02:10:44.454Z,97688.30
2018-02-08T02:11:16.077Z,97686.55
2018-02-08T02:11:47.706Z,97683.97
2018-02-08T02:12:19.509Z,97684.41
2018-02-08T02:12:51.138Z,97686.90
2018-02-08T02:13:22.764Z,97683.99
2018-02-08T02:13:54.385Z,97682.70
2018-02-08T02:14:26.015Z,97678.50
2018-02-08T02:14:57.641Z,97683.14
2018-02-08T02:15:29.310Z,97678.03
2018-02-08T02:16:00.929Z,97683.14
2018-02-08T02:16:32.550Z,97676.87
2018-02-08T02:17:04.174Z,97681.08
2018-02-08T02:17:35.802Z,97686.60
2018-02-08T02:18:07.422Z,97682.72
2018-02-08T02:18:39.046Z,97678.50
2018-02-08T02:19:10.685Z,97681.09
2018-02-08T02:19:42.314Z,97681.98
2018-02-08T02:20:13.941Z,97687.47
2018-02-08T02:20:45.672Z,97687.90
2018-02-08T02:21:17.289Z,97679.03
2018-02-08T02:21:48.914Z,97680.31
2018-02-08T02:22:20.538Z,97682.42
2018-02-08T02:22:52.161Z,97683.76
2018-02-08T02:23:23.790Z,97679.46
2018-02-08T02:23:55.413Z,97679.95
2018-02-08T02:24:27.038Z,97681.72
2018-02-08T02:24:58.665Z,97677.52
2018-02-08T02:25:30.294Z,97683.27
2018-02-08T02:26:01.967Z,97682.06
2018-02-08T02:26:33.589Z,97678.97
2018-02-08T02:27:05.209Z,97682.36
2018-02-08T02:27:36.873Z,97679.72
2018-02-08T02:28:08.514Z,97680.15
2018-02-08T02:28:40.137Z,97687.38
2018-02-08T02:29:11.762Z,97685.25
2018-02-08T02:29:43.386Z,97686.97
2018-02-08T02:30:15.010Z,97682.78
2018-02-08T02:30:46.629Z,97687.03
2018-02-08T02:31:18.258Z,97688.73
2018-02-08T02:31:49.889Z,97683.27
2018-02-08T02:32:21.562Z,97683.64
2018-02-08T02:32:53.190Z,97680.58
2018-02-08T02:33:24.819Z,97679.36
2018-02-08T02:33:56.446Z,97684.05
2018-02-08T02:34:28.073Z,97683.20
2018-02-08T02:34:59.694Z,97683.63
2018-02-08T02:35:31.383Z,97683.69
2018-02-08T02:36:02.978Z,97684.11
2018-02-08T02:36:34.606Z,97680.64
2018-02-08T02:37:06.229Z,97689.53
2018-02-08T02:37:37.897Z,97679.81
2018-02-08T02:38:09.524Z,97685.39
2018-02-08T02:38:41.150Z,97683.69
2018-02-08T02:39:12.769Z,97681.99
2018-02-08T02:39:44.389Z,97683.69
2018-02-08T02:40:16.026Z,97682.06
2018-02-08T02:40:47.658Z,97685.05
2018-02-08T02:41:19.287Z,97683.78
2018-02-08T02:41:50.905Z,97679.61
2018-02-08T02:42:22.530Z,97685.55
2018-02-08T02:42:54.198Z,97692.34
2018-02-08T02:43:25.828Z,97678.33
2018-02-08T02:43:57.467Z,97682.98
2018-02-08T02:44:29.093Z,97685.91
2018-02-08T02:45:00.717Z,97679.59
2018-02-08T02:45:32.349Z,97680.08
2018-02-08T02:46:03.978Z,97679.65
2018-02-08T02:46:35.606Z,97680.03
2018-02-08T02:47:07.234Z,97681.79
2018-02-08T02:47:38.858Z,97683.05
2018-02-08T02:48:10.490Z,97681.30
2018-02-08T02:48:42.113Z,97685.63
2018-02-08T02:49:13.738Z,97679.23
2018-02-08T02:49:45.376Z,97677.13
2018-02-08T02:50:17.000Z,97684.34
2018-02-08T02:50:48.673Z,97686.06
2018-02-08T02:51:20.301Z,97682.66
2018-02-08T02:51:51.922Z,97686.89
2018-02-08T02:52:23.550Z,97687.75
2018-02-08T02:52:55.178Z,97680.15
2018-02-08T02:53:26.801Z,97686.47
2018-02-08T02:53:59.438Z,97685.61
2018-02-08T02:54:31.073Z,97689.38
2018-02-08T02:55:02.719Z,97690.22
2018-02-08T02:55:34.349Z,97683.48
2018-02-08T02:56:06.010Z,97689.88
2018-02-08T02:56:37.634Z,97692.87
2018-02-08T02:57:09.301Z,97689.45
2018-02-08T02:57:40.926Z,97689.45
2018-02-08T02:58:12.550Z,97685.19
2018-02-08T02:58:44.178Z,97688.96
2018-02-08T02:59:15.805Z,97689.88
2018-02-08T02:59:47.473Z,97686.81
2018-02-08T03:00:19.098Z,97688.17
2018-02-08T03:00:50.726Z,97686.03
2018-02-08T03:01:22.393Z,97694.56
2018-02-08T03:01:54.018Z,97689.03
2018-02-08T03:02:25.675Z,97694.50
2018-02-08T03:02:57.309Z,97696.17
2018-02-08T03:03:28.937Z,97691.07
2018-02-08T03:04:00.557Z,97691.86
2018-02-08T03:04:32.306Z,97692.28
2018-02-08T03:05:03.986Z,97693.64
2018-02-08T03:05:35.615Z,97699.94
2018-02-08T03:06:07.234Z,97694.47
2018-02-08T03:06:38.857Z,97699.50
2018-02-08T03:07:10.478Z,97700.80
2018-02-08T03:07:42.105Z,97695.75
2018-02-08T03:08:13.725Z,97697.47
2018-02-08T03:08:45.355Z,97697.38
2018-02-08T03:09:16.986Z,97702.49
2018-02-08T03:09:48.615Z,97700.38
2018-02-08T03:10:20.293Z,97697.46
2018-02-08T03:10:51.929Z,97697.02
2018-02-08T03:11:23.554Z,97697.47
2018-02-08T03:11:55.178Z,97697.97
2018-02-08T03:12:26.799Z,97697.95
2018-02-08T03:12:58.421Z,97702.16
2018-02-08T03:13:30.057Z,97697.05
2018-02-08T03:14:01.677Z,97697.97
2018-02-08T03:14:33.301Z,97701.34
2018-02-08T03:15:04.930Z,97697.59
2018-02-08T03:15:36.558Z,97692.08
2018-02-08T03:16:08.230Z,97693.35
2018-02-08T03:16:39.857Z,97701.00
2018-02-08T03:17:11.481Z,97698.04
2018-02-08T03:17:43.106Z,97691.64
2018-02-08T03:18:14.729Z,97692.94
2018-02-08T03:18:46.348Z,97697.25
2018-02-08T03:19:17.973Z,97697.74
2018-02-08T03:19:49.602Z,97696.95
2018-02-08T03:20:21.220Z,97693.56
2018-02-08T03:20:52.841Z,97696.13
2018-02-08T03:21:24.522Z,97697.47
2018-02-08T03:21:56.150Z,97699.21
2018-02-08T03:22:27.774Z,97703.00
2018-02-08T03:22:59.397Z,97697.81
2018-02-08T03:23:31.048Z,97701.20
2018-02-08T03:24:02.669Z,97699.96
2018-02-08T03:24:34.295Z,97704.21
2018-02-08T03:25:05.926Z,97702.13
2018-02-08T03:25:37.554Z,97703.85
2018-02-08T03:26:09.182Z,97703.40
2018-02-08T03:26:40.845Z,97698.73
2018-02-08T03:27:12.474Z,97702.16
2018-02-08T03:27:44.097Z,97706.03
2018-02-08T03:28:15.722Z,97704.77
2018-02-08T03:28:47.362Z,97704.41
2018-02-08T03:29:18.998Z,97707.74
2018-02-08T03:29:50.693Z,97707.80
2018-02-08T03:30:26.970Z,97706.96
2018-02-08T03:31:00.217Z,97705.69
2018-02-08T03:31:31.862Z,97707.44
2018-02-08T03:32:03.550Z,97703.98
2018-02-08T03:32:35.170Z,97706.89
2018-02-08T03:33:06.789Z,97711.08
2018-02-08T03:33:38.458Z,97709.01
2018-02-08T03:34:10.082Z,97712.41
2018-02-08T03:34:41.709Z,97709.85
2018-02-08T03:35:13.330Z,97708.16
2018-02-08T03:35:44.958Z,97708.52
2018-02-08T03:36:16.581Z,97709.42
2018-02-08T03:36:48.210Z,97706.02
2018-02-08T03:37:19.838Z,97714.42
2018-02-08T03:37:51.461Z,97714.83
2018-02-08T03:38:23.082Z,97714.00
2018-02-08T03:38:54.750Z,97716.11
2018-02-08T03:39:26.381Z,97705.05
2018-02-08T03:39:58.001Z,97716.95
2018-02-08T03:40:29.625Z,97716.53
2018-02-08T03:41:01.249Z,97709.30
2018-02-08T03:41:32.875Z,97709.80
2018-02-08T03:42:04.498Z,97716.97
2018-02-08T03:42:36.129Z,97715.69
2018-02-08T03:43:07.753Z,97715.75
2018-02-08T03:43:39.421Z,97715.27
2018-02-08T03:44:11.048Z,97714.77
2018-02-08T03:44:42.677Z,97716.90
2018-02-08T03:45:14.298Z,97715.19
2018-02-08T03:45:45.922Z,97713.06
2018-02-08T03:46:17.550Z,97713.91
2018-02-08T03:46:49.178Z,97724.13
2018-02-08T03:47:20.798Z,97718.60
2018-02-08T03:47:52.478Z,97723.70
2018-02-08T03:48:24.101Z,97720.77
2018-02-08T03:48:55.721Z,97723.33
2018-02-08T03:49:27.346Z,97719.45
2018-02-08T03:49:58.974Z,97720.34
2018-02-08T03:50:30.597Z,97719.50
2018-02-08T03:51:02.250Z,97720.77
2018-02-08T03:51:33.878Z,97719.50
2018-02-08T03:52:05.502Z,97716.54
2018-02-08T03:52:37.130Z,97720.36
2018-02-08T03:53:08.793Z,97719.09
2018-02-08T03:53:40.413Z,97720.36
2018-02-08T03:54:12.034Z,97717.81
2018-02-08T03:54:43.653Z,97722.86
2018-02-08T03:55:15.281Z,97722.44
2018-02-08T03:55:46.905Z,97723.70
2018-02-08T03:56:18.529Z,97723.70
2018-02-08T03:56:50.154Z,97716.46
2018-02-08T03:57:21.777Z,97718.16
2018-02-08T03:57:53.402Z,97722.78
2018-02-08T03:58:25.021Z,97724.84
2018-02-08T03:58:56.645Z,97726.12
2018-02-08T03:59:28.314Z,97727.02
2018-02-08T03:59:59.938Z,97726.09
2018-02-08T04:00:31.561Z,97725.62
2018-02-08T04:01:03.190Z,97727.80
2018-02-08T04:01:34.813Z,97721.86
2018-02-08T04:02:06.486Z,97726.53
2018-02-08T04:02:38.109Z,97726.95
2018-02-08T04:03:09.733Z,97730.30
2018-02-08T04:03:41.358Z,97727.79
2018-02-08T04:04:12.986Z,97726.09
2018-02-08T04:04:44.625Z,97729.45
2018-02-08T04:05:16.249Z,97728.64
2018-02-08T04:05:47.870Z,97726.52
2018-02-08T04:06:19.493Z,97721.79
2018-02-08T04:06:51.166Z,97727.23
2018-02-08T04:07:22.830Z,97726.27
2018-02-08T04:07:54.457Z,97725.73
2018-02-08T04:08:26.085Z,97721.93
2018-02-08T04:08:57.714Z,97727.47
2018-02-08T04:09:29.342Z,97724.48
2018-02-08T04:10:00.969Z,97733.00
2018-02-08T04:10:32.622Z,97730.06
2018-02-08T04:11:04.261Z,97725.34
2018-02-08T04:11:35.885Z,97728.68
2018-02-08T04:12:07.509Z,97729.16
2018-02-08T04:12:39.134Z,97729.58
2018-02-08T04:13:10.757Z,97726.19
2018-02-08T04:13:42.381Z,97730.86
2018-02-08T04:14:14.061Z,97727.11
2018-02-08T04:14:45.682Z,97724.11
2018-02-08T04:15:17.309Z,97727.80
2018-02-08T04:15:48.965Z,97730.29
2018-02-08T04:16:20.593Z,97730.28
2018-02-08T04:16:52.213Z,97727.61
2018-02-08T04:17:23.837Z,97727.16
2018-02-08T04:17:55.462Z,97730.15
2018-02-08T04:18:27.085Z,97733.06
2018-02-08T04:18:58.710Z,97730.91
2018-02-08T04:19:30.333Z,97728.32
2018-02-08T04:20:01.962Z,97730.44
2018-02-08T04:20:33.589Z,97732.14
2018-02-08T04:21:05.217Z,97731.28
2018-02-08T04:21:36.837Z,97727.59
2018-02-08T04:22:08.458Z,97730.16
2018-02-08T04:22:40.085Z,97729.42
2018-02-08T04:23:11.706Z,97728.16
2018-02-08T04:23:43.330Z,97729.92
2018-02-08T04:24:14.950Z,97732.50
2018-02-08T04:24:46.621Z,97730.42
2018-02-08T04:25:18.241Z,97733.00
2018-02-08T04:25:49.866Z,97727.97
2018-02-08T04:26:21.513Z,97727.55
2018-02-08T04:26:53.134Z,97738.23
2018-02-08T04:27:24.761Z,97730.50
2018-02-08T04:27:56.381Z,97735.98
2018-02-08T04:28:28.002Z,97730.98
2018-02-08T04:28:59.630Z,97733.98
2018-02-08T04:29:31.254Z,97734.34
2018-02-08T04:30:03.050Z,97734.84
2018-02-08T04:30:34.674Z,97735.74
2018-02-08T04:31:06.300Z,97735.75
2018-02-08T04:31:37.921Z,97734.47
2018-02-08T04:32:09.547Z,97736.16
2018-02-08T04:32:41.173Z,97731.91
2018-02-08T04:33:12.798Z,97731.92
2018-02-08T04:33:44.426Z,97734.48
2018-02-08T04:34:16.046Z,97736.17
2018-02-08T04:34:47.673Z,97742.13
2018-02-08T04:35:19.334Z,97737.87
2018-02-08T04:35:50.957Z,97737.04
2018-02-08T04:36:22.586Z,97734.11
2018-02-08T04:36:54.214Z,97736.72
2018-02-08T04:37:25.837Z,97738.02
2018-02-08T04:37:57.465Z,97734.17
2018-02-08T04:38:29.092Z,97737.59
2018-02-08T04:39:00.717Z,97734.61
2018-02-08T04:39:32.342Z,97737.95
2018-02-08T04:40:03.965Z,97717.37
2018-02-08T04:40:35.638Z,97740.98
2018-02-08T04:41:07.266Z,97528.93
2018-02-08T04:41:38.889Z,97741.42
2018-02-08T04:42:10.518Z,97737.61
2018-02-08T04:42:42.141Z,97741.91
2018-02-08T04:43:13.761Z,97742.28
2018-02-08T04:43:45.390Z,97738.03
2018-02-08T04:44:17.022Z,97737.17
2018-02-08T04:44:48.650Z,97739.30
2018-02-08T04:45:20.282Z,97741.91
2018-02-08T04:45:51.950Z,97744.41
2018-02-08T04:46:23.574Z,97750.84
2018-02-08T04:46:55.201Z,97748.73
2018-02-08T04:47:26.831Z,97753.46
2018-02-08T04:47:58.453Z,97747.52
2018-02-08T04:48:30.077Z,97747.03
2018-02-08T04:49:01.705Z,97747.95
2018-02-08T04:49:33.334Z,97748.78
2018-02-08T04:50:04.997Z,97749.28
2018-02-08T04:50:36.621Z,97746.73
2018-02-08T04:51:08.250Z,97748.88
2018-02-08T04:51:39.927Z,97745.94
2018-02-08T04:52:11.554Z,97745.45
2018-02-08T04:52:43.179Z,97746.30
2018-02-08T04:53:14.800Z,97751.39
2018-02-08T04:53:46.422Z,97743.27
2018-02-08T04:54:18.053Z,97747.95
2018-02-08T04:54:49.673Z,97751.34
2018-02-08T04:55:21.301Z,97750.06
2018-02-08T04:55:52.925Z,97747.14
2018-02-08T04:56:24.545Z,97748.86
2018-02-08T04:56:56.205Z,97753.95
2018-02-08T04:57:27.831Z,97752.20
2018-02-08T04:57:59.458Z,97753.10
2018-02-08T04:58:31.081Z,97753.91
2018-02-08T04:59:02.701Z,97751.78
2018-02-08T04:59:34.321Z,97748.37
2018-02-08T05:00:05.951Z,97754.25
2018-02-08T05:00:37.630Z,97752.98
2018-02-08T05:01:09.252Z,97755.58
2018-02-08T05:01:40.889Z,97758.56
2018-02-08T05:02:14.254Z,97753.48
2018-02-08T05:02:45.894Z,97755.17
2018-02-08T05:03:17.521Z,97757.30
2018-02-08T05:03:49.141Z,97758.58
2018-02-08T05:04:20.768Z,97756.51
2018-02-08T05:04:52.389Z,97758.16
2018-02-08T05:05:24.015Z,97761.13
2018-02-08T05:05:55.686Z,97756.50
2018-02-08T05:06:27.310Z,97747.95
2018-02-08T05:06:58.929Z,97755.66
2018-02-08T05:07:30.555Z,97753.94
2018-02-08T05:08:02.186Z,97755.66
2018-02-08T05:08:33.810Z,97758.66
2018-02-08T05:09:05.438Z,97757.80
2018-02-08T05:09:37.070Z,97754.02
2018-02-08T05:10:08.690Z,97751.47
2018-02-08T05:10:40.317Z,97756.11
2018-02-08T05:11:12.193Z,97756.52
2018-02-08T05:11:43.817Z,97751.84
2018-02-08T05:12:15.446Z,97753.13
2018-02-08T05:12:47.073Z,97754.83
2018-02-08T05:13:18.698Z,97758.27
2018-02-08T05:13:50.325Z,97759.92
2018-02-08T05:14:21.946Z,97759.14
2018-02-08T05:14:53.574Z,97765.04
2018-02-08T05:15:25.197Z,97754.03
2018-02-08T05:15:56.820Z,97757.44
2018-02-08T05:16:28.501Z,97761.69
2018-02-08T05:17:00.121Z,97757.00
2018-02-08T05:17:31.741Z,97759.97
2018-02-08T05:18:03.366Z,97757.44
2018-02-08T05:18:34.994Z,97755.78
2018-02-08T05:19:06.617Z,97755.36
2018-02-08T05:19:38.237Z,97763.86
2018-02-08T05:20:09.865Z,97763.41
2018-02-08T05:20:41.539Z,97760.03
2018-02-08T05:21:13.161Z,97763.44
2018-02-08T05:21:44.785Z,97763.03
2018-02-08T05:22:16.406Z,97766.00
2018-02-08T05:22:48.025Z,97765.94
2018-02-08T05:23:19.645Z,97766.30
2018-02-08T05:23:51.269Z,97765.44
2018-02-08T05:24:22.894Z,97759.92
2018-02-08T05:24:54.517Z,97765.01
2018-02-08T05:25:26.138Z,97763.38
2018-02-08T05:25:57.765Z,97768.42
2018-02-08T05:26:29.389Z,97768.44
2018-02-08T05:27:01.019Z,97763.38
2018-02-08T05:27:32.637Z,97766.78
2018-02-08T05:28:04.258Z,97766.42
2018-02-08T05:28:35.882Z,97773.59
2018-02-08T05:29:07.506Z,97760.89
2018-02-08T05:29:39.134Z,97765.09
2018-02-08T05:30:10.758Z,97766.84
2018-02-08T05:30:42.378Z,97762.55
2018-02-08T05:31:14.014Z,97769.33
2018-02-08T05:31:45.685Z,97766.31
2018-02-08T05:32:17.304Z,97766.78
2018-02-08T05:32:48.925Z,97765.08
2018-02-08T05:33:20.550Z,97758.34
2018-02-08T05:33:52.169Z,97768.41
2018-02-08T05:34:23.789Z,97771.40
2018-02-08T05:34:55.409Z,97771.34
2018-02-08T05:35:27.030Z,97767.56
2018-02-08T05:35:58.653Z,97773.58
2018-02-08T05:36:30.278Z,97766.31
2018-02-08T05:37:01.949Z,97768.42
2018-02-08T05:37:33.574Z,97769.28
2018-02-08T05:38:05.201Z,97768.41
2018-02-08T05:38:36.825Z,97771.82
2018-02-08T05:39:08.457Z,97766.30
2018-02-08T05:39:40.125Z,97762.95
2018-02-08T05:40:11.754Z,97768.48
2018-02-08T05:40:43.386Z,97768.50
2018-02-08T05:41:15.006Z,97771.95
2018-02-08T05:41:46.629Z,97765.57
2018-02-08T05:42:18.249Z,97765.57
2018-02-08T05:42:49.869Z,97767.22
2018-02-08T05:43:21.490Z,97763.38
2018-02-08T05:43:53.109Z,97763.39
2018-02-08T05:44:24.729Z,97764.66
2018-02-08T05:44:56.354Z,97770.98
2018-02-08T05:45:27.981Z,97762.53
2018-02-08T05:45:59.606Z,97774.45
2018-02-08T05:46:31.230Z,97770.61
2018-02-08T05:47:02.902Z,97771.88
2018-02-08T05:47:34.522Z,97768.01
2018-02-08T05:48:06.147Z,97768.86
2018-02-08T05:48:37.769Z,97771.41
2018-02-08T05:49:09.390Z,97773.97
2018-02-08T05:49:41.011Z,97772.67
2018-02-08T05:50:12.629Z,97771.88
2018-02-08T05:50:44.253Z,97768.49
2018-02-08T05:51:15.884Z,97779.12
2018-02-08T05:51:47.505Z,97772.75
2018-02-08T05:52:19.177Z,97769.48
2018-02-08T05:52:50.854Z,97780.35
2018-02-08T05:53:22.485Z,97782.03
2018-02-08T05:53:54.387Z,97777.36
2018-02-08T05:54:26.137Z,97779.48
2018-02-08T05:54:57.806Z,97778.62
2018-02-08T05:55:29.437Z,97777.73
2018-02-08T05:56:01.067Z,97781.59
2018-02-08T05:56:32.699Z,97778.62
2018-02-08T05:57:04.341Z,97778.63
2018-02-08T05:57:35.970Z,97776.52
2018-02-08T05:58:07.650Z,97775.23
2018-02-08T05:58:39.279Z,97780.34
2018-02-08T05:59:10.909Z,97784.59
2018-02-08T05:59:42.529Z,97782.94
2018-02-08T06:00:14.199Z,97782.52
2018-02-08T06:00:45.809Z,97779.95
2018-02-08T06:01:17.439Z,97780.82
2018-02-08T06:01:49.065Z,97778.22
2018-02-08T06:02:20.704Z,97779.60
2018-02-08T06:02:52.334Z,97783.87
2018-02-08T06:03:24.002Z,97782.96
2018-02-08T06:03:55.630Z,97786.77
2018-02-08T06:04:27.253Z,97788.47
2018-02-08T06:04:58.878Z,97788.91
2018-02-08T06:05:30.505Z,97787.98
2018-02-08T06:06:02.134Z,97787.58
2018-02-08T06:06:33.801Z,97784.66
2018-02-08T06:07:05.422Z,97793.58
2018-02-08T06:07:37.042Z,97788.43
2018-02-08T06:08:08.661Z,97790.59
2018-02-08T06:08:40.302Z,97787.25
2018-02-08T06:09:11.926Z,97791.08
2018-02-08T06:09:43.554Z,97784.59
2018-02-08T06:10:15.219Z,97789.27
2018-02-08T06:10:46.842Z,97790.11
2018-02-08T06:11:18.469Z,97796.86
2018-02-08T06:11:50.097Z,97788.41